Time;durP1;ratioP1;P1;durP2;ratioP2;P2;SDS_P1;SDS_P2;PMS_P1;PMS_P2;Temp;Humidity;BMP_temperature;BMP_pressure;BME280_temperature;BME280_humidity;BME280_pressure;Samples;Min_cycle;Max_cycle;Signal;HPM_P1;HPM_P2
2022/06/22 00:00:58;;;;;;;;;;;11.00;99.90;;;;;;4842820;29;19924;-95
2022/06/22 00:03:24;;;;;;;;;;;11.50;99.90;;;;;;4842754;29;19924;-96
2022/06/22 00:05:56;;;;;;;;;;;11.00;99.90;;;;;;4841797;29;19952;-95
2022/06/22 00:08:27;;;;;;;;;;;11.10;99.90;;;;;;4842521;29;19928;-96
2022/06/22 00:10:55;;;;;;;;;;;11.30;99.90;;;;;;4842515;29;19928;-95
2022/06/22 00:13:23;;;;;;;;;;;11.10;99.90;;;;;;4841987;29;19971;-95
2022/06/22 00:15:56;;;;;;;;;;;11.10;99.90;;;;;;4842719;29;20002;-96
2022/06/22 00:18:39;;;;;;;;;;;10.90;99.90;;;;;;4857182;29;19963;-96
2022/06/22 00:21:15;;;;;;;;;;;11.10;99.90;;;;;;4841333;29;19925;-95
2022/06/22 00:23:42;;;;;;;;;;;11.10;99.90;;;;;;4842408;29;19924;-96
2022/06/22 00:26:25;;;;;;;;;;;11.10;99.90;;;;;;4857344;29;20365;-95
2022/06/22 00:29:04;;;;;;;;;;;11.20;99.90;;;;;;4841877;29;19924;-96
2022/06/22 00:31:36;;;;;;;;;;;11.10;99.90;;;;;;4842022;29;19923;-96
2022/06/22 00:34:12;;;;;;;;;;;11.10;99.90;;;;;;4841565;29;19996;-95
2022/06/22 00:36:45;;;;;;;;;;;11.00;99.90;;;;;;4841813;29;19928;-96
2022/06/22 00:39:15;;;;;;;;;;;10.80;99.90;;;;;;4842035;29;19976;-96
2022/06/22 00:41:41;;;;;;;;;;;10.60;99.90;;;;;;4841836;29;20396;-95
2022/06/22 00:44:08;;;;;;;;;;;10.30;99.90;;;;;;4841874;29;19928;-96
2022/06/22 00:46:34;;;;;;;;;;;10.20;99.90;;;;;;4841282;29;19924;-94
2022/06/22 00:49:06;;;;;;;;;;;10.20;99.90;;;;;;4841461;29;19935;-95
2022/06/22 00:51:35;;;;;;;;;;;10.20;99.90;;;;;;4844676;29;20318;-95
2022/06/22 00:54:10;;;;;;;;;;;10.30;99.90;;;;;;4844963;29;20313;-94
2022/06/22 00:56:43;;;;;;;;;;;10.40;99.90;;;;;;4844252;29;19931;-94
2022/06/22 00:59:18;;;;;;;;;;;10.40;99.90;;;;;;4844641;29;20356;-93
2022/06/22 01:01:56;;;;;;;;;;;10.50;99.90;;;;;;4845414;29;20066;-95
2022/06/22 01:04:25;;;;;;;;;;;10.50;99.90;;;;;;4858889;29;19929;-95
2022/06/22 01:07:00;;;;;;;;;;;10.50;99.90;;;;;;4844993;29;20321;-95
2022/06/22 01:09:35;;;;;;;;;;;10.50;99.90;;;;;;4843488;29;19946;-95
2022/06/22 01:12:16;;;;;;;;;;;10.50;99.90;;;;;;4860079;29;19974;-94
2022/06/22 01:14:42;;;;;;;;;;;10.50;99.90;;;;;;4860406;29;19931;-95
2022/06/22 01:17:12;;;;;;;;;;;10.40;99.90;;;;;;4859228;29;19923;-95
2022/06/22 01:19:48;;;;;;;;;;;10.40;99.90;;;;;;4844896;29;19927;-95
2022/06/22 01:22:14;;;;;;;;;;;10.30;99.90;;;;;;4844697;29;19923;-95
2022/06/22 01:24:42;;;;;;;;;;;10.20;99.90;;;;;;4859368;29;19928;-96
2022/06/22 01:27:17;;;;;;;;;;;10.30;99.90;;;;;;4859726;29;19924;-94
2022/06/22 01:29:48;;;;;;;;;;;10.30;99.90;;;;;;4860182;29;20380;-94
2022/06/22 01:32:15;;;;;;;;;;;10.90;99.90;;;;;;4847458;29;19934;-95
2022/06/22 01:34:42;;;;;;;;;;;10.10;99.90;;;;;;4847620;29;19926;-95
2022/06/22 01:37:18;;;;;;;;;;;10.00;99.90;;;;;;4847953;29;19923;-95
2022/06/22 01:39:44;;;;;;;;;;;9.90;99.90;;;;;;4848440;29;19931;-95
2022/06/22 01:42:13;;;;;;;;;;;9.70;99.90;;;;;;4848053;29;19924;-94
2022/06/22 01:44:48;;;;;;;;;;;9.80;99.90;;;;;;4862507;29;19923;-96
2022/06/22 01:47:24;;;;;;;;;;;10.00;99.90;;;;;;4847808;29;19931;-93
2022/06/22 01:49:55;;;;;;;;;;;9.90;99.90;;;;;;4847969;29;19935;-94
2022/06/22 01:52:40;;;;;;;;;;;9.60;99.90;;;;;;4847347;29;19927;-94
2022/06/22 01:55:16;;;;;;;;;;;9.50;99.90;;;;;;4863542;29;19928;-93
2022/06/22 01:58:01;;;;;;;;;;;9.40;99.90;;;;;;4848220;29;19975;-94
2022/06/22 02:00:27;;;;;;;;;;;9.40;99.90;;;;;;4862379;29;19924;-95
2022/06/22 02:02:56;;;;;;;;;;;9.30;99.90;;;;;;4848110;29;19939;-95
2022/06/22 02:05:22;;;;;;;;;;;9.20;99.90;;;;;;4846381;29;19923;-95
2022/06/22 02:07:56;;;;;;;;;;;9.20;99.90;;;;;;4863272;29;20312;-96
2022/06/22 02:10:29;;;;;;;;;;;9.10;99.90;;;;;;4847376;29;20068;-95
2022/06/22 02:13:17;;;;;;;;;;;9.10;99.90;;;;;;4846987;29;19924;-94
2022/06/22 02:15:45;;;;;;;;;;;9.10;99.90;;;;;;4847754;29;20014;-95
2022/06/22 02:18:13;;;;;;;;;;;9.10;99.90;;;;;;4844059;29;20396;-94
2022/06/22 02:20:41;;;;;;;;;;;9.10;99.90;;;;;;4843288;29;20066;-94
2022/06/22 02:23:10;;;;;;;;;;;9.10;99.90;;;;;;4844104;29;19928;-94
2022/06/22 02:25:45;;;;;;;;;;;9.20;99.90;;;;;;4842130;29;20534;-94
2022/06/22 02:28:11;;;;;;;;;;;9.20;99.90;;;;;;4842185;29;20359;-94
2022/06/22 02:30:40;;;;;;;;;;;9.20;99.90;;;;;;4843293;29;19928;-94
2022/06/22 02:33:07;;;;;;;;;;;9.20;99.90;;;;;;4843256;29;19978;-94
2022/06/22 02:35:33;;;;;;;;;;;9.30;99.90;;;;;;4841808;29;19932;-95
2022/06/22 02:38:08;;;;;;;;;;;9.20;99.90;;;;;;4843156;29;20376;-94
2022/06/22 02:46:17;;;;;;;;;;;9.10;99.90;;;;;;4858576;29;20379;-94
2022/06/22 02:48:54;;;;;;;;;;;9.60;99.90;;;;;;4842052;29;19936;-94
2022/06/22 02:51:24;;;;;;;;;;;9.10;99.90;;;;;;4842418;29;19928;-93
2022/06/22 02:53:59;;;;;;;;;;;9.10;99.90;;;;;;4843028;29;19954;-94
2022/06/22 02:56:32;;;;;;;;;;;9.10;99.90;;;;;;4841977;29;19967;-93
2022/06/22 02:59:11;;;;;;;;;;;9.10;99.90;;;;;;4842912;29;19928;-94
2022/06/22 03:01:37;;;;;;;;;;;9.10;99.90;;;;;;4841913;29;19934;-94
2022/06/22 03:04:06;;;;;;;;;;;9.10;99.90;;;;;;4842280;29;20341;-94
2022/06/22 03:06:34;;;;;;;;;;;9.10;99.90;;;;;;4842225;29;19954;-93
2022/06/22 03:09:01;;;;;;;;;;;9.20;99.90;;;;;;4857499;29;19924;-94
2022/06/22 03:11:29;;;;;;;;;;;9.10;99.90;;;;;;4857124;29;20014;-94
2022/06/22 03:14:14;;;;;;;;;;;9.00;99.90;;;;;;4842923;29;19920;-93
2022/06/22 03:17:03;;;;;;;;;;;9.00;99.90;;;;;;4850474;29;20023;-93
2022/06/22 03:19:36;;;;;;;;;;;9.00;99.90;;;;;;4857390;29;19934;-92
2022/06/22 03:22:04;;;;;;;;;;;9.00;99.90;;;;;;4858152;29;19931;-92
2022/06/22 03:24:36;;;;;;;;;;;9.00;99.90;;;;;;4817044;29;1202349;-94
2022/06/22 03:27:07;;;;;;;;;;;8.90;99.90;;;;;;4828563;29;19928;-93
2022/06/22 03:29:47;;;;;;;;;;;9.00;99.90;;;;;;4858461;29;19983;-93
2022/06/22 03:32:16;;;;;;;;;;;9.10;99.90;;;;;;4858034;29;20023;-95
2022/06/22 03:34:44;;;;;;;;;;;9.10;99.90;;;;;;4843092;29;20381;-94
2022/06/22 03:37:26;;;;;;;;;;;9.10;99.90;;;;;;4857257;29;19928;-94
2022/06/22 03:39:54;;;;;;;;;;;9.10;99.90;;;;;;4858384;29;19931;-92
2022/06/22 03:42:26;;;;;;;;;;;9.10;99.90;;;;;;4861677;29;19950;-92
2022/06/22 03:44:54;;;;;;;;;;;8.90;99.90;;;;;;4845029;29;19974;-93
2022/06/22 03:47:22;;;;;;;;;;;9.30;99.90;;;;;;4845898;29;19928;-93
2022/06/22 03:50:00;;;;;;;;;;;9.30;99.90;;;;;;4845360;29;19979;-92
2022/06/22 03:52:35;;;;;;;;;;;9.20;99.90;;;;;;4844177;29;19986;-93
2022/06/22 03:55:09;;;;;;;;;;;9.20;99.90;;;;;;4845712;29;19924;-93
2022/06/22 03:57:37;;;;;;;;;;;9.50;99.90;;;;;;4845754;29;19923;-93
2022/06/22 04:00:04;;;;;;;;;;;9.50;99.90;;;;;;4845082;29;19928;-93
2022/06/22 04:02:33;;;;;;;;;;;9.50;99.90;;;;;;4845714;29;20022;-93
2022/06/22 04:05:13;;;;;;;;;;;9.30;99.90;;;;;;4844660;29;19972;-93
2022/06/22 04:07:39;;;;;;;;;;;9.50;99.90;;;;;;4845622;29;20288;-91
2022/06/22 04:10:07;;;;;;;;;;;9.60;99.90;;;;;;4845570;29;19924;-93
2022/06/22 04:12:38;;;;;;;;;;;9.60;99.90;;;;;;4845194;29;19932;-93
2022/06/22 04:15:17;;;;;;;;;;;9.40;99.90;;;;;;4845264;29;19970;-93
2022/06/22 04:17:45;;;;;;;;;;;9.70;99.90;;;;;;4842067;29;20026;-93
2022/06/22 04:20:20;;;;;;;;;;;9.80;99.90;;;;;;4841531;29;19932;-93
2022/06/22 04:22:48;;;;;;;;;;;9.90;99.90;;;;;;4842845;29;19980;-92
2022/06/22 04:25:25;;;;;;;;;;;10.00;99.90;;;;;;4824383;29;20433;-91
2022/06/22 04:27:54;;;;;;;;;;;10.20;99.90;;;;;;4824126;29;20285;-93
2022/06/22 04:30:22;;;;;;;;;;;10.10;99.90;;;;;;4823438;29;19924;-93
2022/06/22 04:32:56;;;;;;;;;;;10.40;99.90;;;;;;4823702;29;19924;-92
2022/06/22 04:35:25;;;;;;;;;;;10.50;99.90;;;;;;4823221;29;20360;-91
2022/06/22 04:37:55;;;;;;;;;;;10.60;99.90;;;;;;4824004;29;19921;-92
2022/06/22 04:40:40;;;;;;;;;;;10.80;99.90;;;;;;4822672;29;19944;-91
2022/06/22 04:43:06;;;;;;;;;;;10.90;99.90;;;;;;4823784;29;19947;-92
2022/06/22 04:45:38;;;;;;;;;;;11.10;99.90;;;;;;4823379;29;20284;-92
2022/06/22 04:48:06;;;;;;;;;;;11.20;99.90;;;;;;4823048;29;20781;-90
2022/06/22 04:50:33;;;;;;;;;;;11.30;99.90;;;;;;4822995;29;19971;-92
2022/06/22 04:52:59;;;;;;;;;;;11.50;99.90;;;;;;4823982;29;19925;-92
2022/06/22 04:55:26;;;;;;;;;;;11.60;99.90;;;;;;4822400;29;20063;-92
2022/06/22 04:57:54;;;;;;;;;;;11.80;99.90;;;;;;4823861;29;19932;-91
2022/06/22 05:00:22;;;;;;;;;;;11.80;99.90;;;;;;4823194;29;20015;-91
2022/06/22 05:02:49;;;;;;;;;;;11.20;99.90;;;;;;4823135;29;19928;-91
2022/06/22 05:05:19;;;;;;;;;;;12.00;99.90;;;;;;4822266;29;19925;-91
2022/06/22 05:07:49;;;;;;;;;;;12.10;99.90;;;;;;4838378;29;20067;-91
2022/06/22 05:10:18;;;;;;;;;;;12.20;99.90;;;;;;4822208;29;19924;-94
2022/06/22 05:12:48;;;;;;;;;;;12.30;99.90;;;;;;4823808;29;19932;-92
2022/06/22 05:15:17;;;;;;;;;;;12.10;99.90;;;;;;4822418;29;19924;-92
2022/06/22 05:17:42;;;;;;;;;;;12.60;99.90;;;;;;4823738;29;19990;-93
2022/06/22 05:20:16;;;;;;;;;;;12.70;99.90;;;;;;4822971;29;19976;-93
2022/06/22 05:22:42;;;;;;;;;;;12.80;99.90;;;;;;4823276;29;20015;-93
2022/06/22 05:25:14;;;;;;;;;;;12.90;99.90;;;;;;4840331;29;19971;-93
2022/06/22 05:27:48;;;;;;;;;;;13.20;99.90;;;;;;4857128;29;19928;-93
2022/06/22 05:30:14;;;;;;;;;;;13.10;99.90;;;;;;4840467;29;19935;-93
2022/06/22 05:32:45;;;;;;;;;;;13.10;99.90;;;;;;4841468;29;19927;-93
2022/06/22 05:35:26;;;;;;;;;;;13.50;99.90;;;;;;4840824;29;20014;-92
2022/06/22 05:37:52;;;;;;;;;;;13.30;99.90;;;;;;4840762;29;19924;-92
2022/06/22 05:40:20;;;;;;;;;;;13.60;99.90;;;;;;4841180;29;19985;-92
2022/06/22 05:42:45;;;;;;;;;;;13.70;99.90;;;;;;4841172;29;19924;-92
2022/06/22 05:45:14;;;;;;;;;;;13.80;99.90;;;;;;4840599;29;20369;-94
2022/06/22 05:47:40;;;;;;;;;;;13.90;99.90;;;;;;4841202;29;19928;-94
2022/06/22 05:50:18;;;;;;;;;;;14.00;99.90;;;;;;4840705;29;20429;-94
2022/06/22 05:52:48;;;;;;;;;;;14.20;99.90;;;;;;4841215;29;19932;-94
2022/06/22 05:55:17;;;;;;;;;;;14.30;99.90;;;;;;4840996;29;19931;-93
2022/06/22 05:57:47;;;;;;;;;;;14.40;99.90;;;;;;4840981;29;19980;-94
2022/06/22 06:00:21;;;;;;;;;;;14.60;99.90;;;;;;4840603;29;19927;-93
2022/06/22 06:03:08;;;;;;;;;;;15.00;99.90;;;;;;4842064;29;19931;-93
2022/06/22 06:05:36;;;;;;;;;;;14.80;99.90;;;;;;4841263;29;19952;-94
2022/06/22 06:08:07;;;;;;;;;;;15.00;99.90;;;;;;4841759;29;19924;-93
2022/06/22 06:10:35;;;;;;;;;;;15.10;99.90;;;;;;4841698;29;19928;-94
2022/06/22 06:13:02;;;;;;;;;;;15.20;99.90;;;;;;4841620;29;20034;-93
2022/06/22 06:15:31;;;;;;;;;;;15.30;99.90;;;;;;4842216;29;19925;-92
2022/06/22 06:18:01;;;;;;;;;;;15.40;99.90;;;;;;4845744;29;20031;-93
2022/06/22 06:20:29;;;;;;;;;;;15.70;99.90;;;;;;4845008;29;20399;-96
2022/06/22 06:22:58;;;;;;;;;;;15.70;99.90;;;;;;4848848;29;19928;-93
2022/06/22 06:28:15;;;;;;;;;;;15.90;99.90;;;;;;4855051;29;20400;-95
2022/06/22 06:33:23;;;;;;;;;;;16.10;99.90;;;;;;4990104;23;19932;-95
2022/06/22 06:35:52;;;;;;;;;;;16.20;99.90;;;;;;4841410;29;19923;-94
2022/06/22 06:38:23;;;;;;;;;;;16.40;99.90;;;;;;4843317;29;19934;-91
2022/06/22 06:41:01;;;;;;;;;;;16.50;99.90;;;;;;4839381;29;20452;-91
2022/06/22 06:43:36;;;;;;;;;;;16.50;99.90;;;;;;4845484;29;19934;-93
2022/06/22 06:46:03;;;;;;;;;;;16.60;99.90;;;;;;4860326;29;19927;-91
2022/06/22 06:48:30;;;;;;;;;;;16.60;99.90;;;;;;4846301;29;19924;-91
2022/06/22 06:50:58;;;;;;;;;;;16.60;99.90;;;;;;4862549;29;19927;-91
2022/06/22 06:53:31;;;;;;;;;;;16.80;99.90;;;;;;4846274;29;21263;-91
2022/06/22 06:56:03;;;;;;;;;;;16.90;99.90;;;;;;4862505;29;20325;-91
2022/06/22 06:58:39;;;;;;;;;;;17.00;99.90;;;;;;4863218;29;19920;-91
2022/06/22 07:01:05;;;;;;;;;;;17.10;99.90;;;;;;4849117;29;19924;-92
2022/06/22 07:03:35;;;;;;;;;;;17.10;99.90;;;;;;4849616;29;20017;-90
2022/06/22 07:06:02;;;;;;;;;;;17.20;99.90;;;;;;4846479;29;19924;-92
2022/06/22 07:08:36;;;;;;;;;;;17.30;99.90;;;;;;4875983;29;19932;-91
2022/06/22 07:11:02;;;;;;;;;;;17.30;99.90;;;;;;4857544;29;19923;-90
2022/06/22 07:13:32;;;;;;;;;;;17.40;99.90;;;;;;4845667;29;19953;-91
2022/06/22 07:16:01;;;;;;;;;;;17.50;99.90;;;;;;4845138;29;19936;-91
2022/06/22 07:18:31;;;;;;;;;;;17.50;99.90;;;;;;4846881;29;19923;-91
2022/06/22 07:21:02;;;;;;;;;;;17.50;99.90;;;;;;4855401;29;19943;-90
2022/06/22 07:23:32;;;;;;;;;;;17.60;99.90;;;;;;4841270;29;20294;-91
2022/06/22 07:26:02;;;;;;;;;;;17.60;99.90;;;;;;4861244;29;20015;-90
2022/06/22 07:28:31;;;;;;;;;;;17.60;99.90;;;;;;4846741;29;19934;-89
2022/06/22 07:30:57;;;;;;;;;;;17.80;99.90;;;;;;4846407;29;19924;-96
2022/06/22 07:33:27;;;;;;;;;;;17.80;99.90;;;;;;4862301;29;19956;-96
2022/06/22 07:35:56;;;;;;;;;;;18.00;99.90;;;;;;4847522;29;19923;-95
2022/06/22 07:38:28;;;;;;;;;;;18.00;99.90;;;;;;4845803;29;19927;-96
2022/06/22 07:43:38;;;;;;;;;;;18.20;99.90;;;;;;4854479;29;20014;-96
2022/06/22 07:46:06;;;;;;;;;;;18.30;99.90;;;;;;4836276;29;19983;-96
2022/06/22 07:48:36;;;;;;;;;;;18.40;99.90;;;;;;4833245;29;19927;-96
2022/06/22 07:51:04;;;;;;;;;;;18.40;99.90;;;;;;4838036;29;19924;-96
2022/06/22 07:53:33;;;;;;;;;;;18.60;99.90;;;;;;4837324;29;19924;-96
2022/06/22 07:56:03;;;;;;;;;;;18.70;99.90;;;;;;4838748;29;20455;-96
2022/06/22 07:58:31;;;;;;;;;;;18.80;99.90;;;;;;4830776;29;19969;-96
2022/06/22 08:00:59;;;;;;;;;;;18.70;99.90;;;;;;4828182;29;20020;-95
2022/06/22 08:03:29;;;;;;;;;;;18.80;99.90;;;;;;4828278;29;20433;-95
2022/06/22 08:05:57;;;;;;;;;;;18.90;99.90;;;;;;4828123;29;19982;-95
2022/06/22 08:08:26;;;;;;;;;;;19.00;99.90;;;;;;4830062;29;19936;-95
2022/06/22 08:10:54;;;;;;;;;;;19.00;99.90;;;;;;4828709;29;20014;-95
2022/06/22 08:13:22;;;;;;;;;;;19.20;99.90;;;;;;4830292;29;19928;-96
2022/06/22 08:15:51;;;;;;;;;;;19.30;99.90;;;;;;4827837;29;19932;-95
2022/06/22 08:18:18;;;;;;;;;;;19.20;99.90;;;;;;4827769;29;19986;-95
2022/06/22 08:20:45;;;;;;;;;;;19.30;99.90;;;;;;4827722;29;20278;-96
2022/06/22 08:23:14;;;;;;;;;;;19.30;99.90;;;;;;4829050;29;19928;-96
2022/06/22 08:25:44;;;;;;;;;;;19.40;99.90;;;;;;4827241;29;20380;-96
2022/06/22 08:28:12;;;;;;;;;;;19.40;99.90;;;;;;4829598;29;19972;-95
2022/06/22 08:30:39;;;;;;;;;;;19.40;99.90;;;;;;4831081;29;19935;-96
2022/06/22 08:33:06;;;;;;;;;;;19.40;99.90;;;;;;4843205;29;19924;-96
2022/06/22 08:35:34;;;;;;;;;;;19.50;99.90;;;;;;4846773;29;20292;-96
2022/06/22 08:38:01;;;;;;;;;;;19.60;99.90;;;;;;4843168;29;19978;-95
2022/06/22 08:40:28;;;;;;;;;;;19.60;99.90;;;;;;4841761;29;19928;-95
2022/06/22 08:42:58;;;;;;;;;;;19.70;99.90;;;;;;4842796;29;19963;-95
2022/06/22 08:45:38;;;;;;;;;;;19.80;99.90;;;;;;4842874;29;19924;-96
2022/06/22 08:48:08;;;;;;;;;;;19.90;99.90;;;;;;4842710;29;20467;-96
2022/06/22 08:50:42;;;;;;;;;;;20.00;99.90;;;;;;4842444;29;20150;-96
2022/06/22 08:53:08;;;;;;;;;;;20.00;99.90;;;;;;4842346;29;20461;-96
2022/06/22 08:55:38;;;;;;;;;;;20.10;99.90;;;;;;4844210;29;19975;-96
2022/06/22 08:58:25;;;;;;;;;;;20.20;99.90;;;;;;4843736;29;19924;-96
2022/06/22 09:01:02;;;;;;;;;;;20.30;99.90;;;;;;4842285;29;19979;-95
2022/06/22 09:03:48;;;;;;;;;;;20.40;99.90;;;;;;4842428;29;19986;-96
2022/06/22 09:06:15;;;;;;;;;;;20.40;99.90;;;;;;4842324;29;19928;-96
2022/06/22 09:08:41;;;;;;;;;;;20.50;99.90;;;;;;4844386;29;20018;-96
2022/06/22 09:11:13;;;;;;;;;;;20.50;99.90;;;;;;4844216;29;19924;-96
2022/06/22 09:13:46;;;;;;;;;;;20.60;99.90;;;;;;4861457;29;19927;-93
2022/06/22 09:16:31;;;;;;;;;;;20.60;99.90;;;;;;4856423;29;19972;-92
2022/06/22 09:18:56;;;;;;;;;;;20.60;99.90;;;;;;4853157;29;19935;-92
2022/06/22 09:21:25;;;;;;;;;;;20.70;99.90;;;;;;4857092;29;19927;-92
2022/06/22 09:23:50;;;;;;;;;;;20.80;99.90;;;;;;4859402;29;19924;-92
2022/06/22 09:26:35;;;;;;;;;;;20.80;99.90;;;;;;4861287;29;19930;-92
2022/06/22 09:29:02;;;;;;;;;;;20.90;99.90;;;;;;4872275;29;20046;-91
2022/06/22 09:31:46;;;;;;;;;;;20.90;99.90;;;;;;4826145;29;19924;-93
2022/06/22 09:34:24;;;;;;;;;;;20.90;99.90;;;;;;4870953;29;19930;-93
2022/06/22 09:36:59;;;;;;;;;;;21.10;99.90;;;;;;4860111;29;20276;-92
2022/06/22 09:39:35;;;;;;;;;;;21.10;99.90;;;;;;4859294;29;20542;-92
2022/06/22 09:42:04;;;;;;;;;;;21.20;99.90;;;;;;4844286;29;20025;-92
2022/06/22 09:44:38;;;;;;;;;;;21.30;99.90;;;;;;4855925;29;20403;-92
2022/06/22 09:47:17;;;;;;;;;;;21.30;99.90;;;;;;4867091;29;19928;-92
2022/06/22 09:49:46;;;;;;;;;;;21.30;99.90;;;;;;4847253;29;19927;-92
2022/06/22 09:52:21;;;;;;;;;;;21.30;99.90;;;;;;4877455;29;20281;-92
2022/06/22 09:57:44;;;;;;;;;;;21.30;99.90;;;;;;4875985;29;20022;-92
2022/06/22 10:00:13;;;;;;;;;;;21.40;99.90;;;;;;4865961;29;20276;-92
2022/06/22 10:02:53;;;;;;;;;;;21.50;99.90;;;;;;4849860;29;19919;-93
2022/06/22 10:05:28;;;;;;;;;;;21.50;99.90;;;;;;4862584;29;19931;-92
2022/06/22 10:08:02;;;;;;;;;;;21.60;99.90;;;;;;4849453;29;19920;-92
2022/06/22 10:10:28;;;;;;;;;;;21.70;99.90;;;;;;4869923;29;20420;-92
2022/06/22 10:12:57;;;;;;;;;;;21.80;99.90;;;;;;4863583;29;19934;-93
2022/06/22 10:15:26;;;;;;;;;;;21.90;99.90;;;;;;4865447;29;20686;-91
2022/06/22 10:18:00;;;;;;;;;;;21.90;99.90;;;;;;4863759;29;19931;-92
2022/06/22 10:20:33;;;;;;;;;;;21.90;99.90;;;;;;4863833;29;19923;-93
2022/06/22 10:23:20;;;;;;;;;;;22.00;99.90;;;;;;4849268;29;19924;-92
2022/06/22 10:25:52;;;;;;;;;;;21.90;99.90;;;;;;4860882;29;19928;-92
2022/06/22 10:28:27;;;;;;;;;;;21.90;99.90;;;;;;4847979;29;19930;-92
2022/06/22 10:31:09;;;;;;;;;;;21.90;99.90;;;;;;4864494;29;19923;-92
2022/06/22 10:33:38;;;;;;;;;;;22.00;99.90;;;;;;4859702;29;19924;-93
2022/06/22 10:36:18;;;;;;;;;;;22.10;99.90;;;;;;4862593;29;20027;-93
2022/06/22 10:38:55;;;;;;;;;;;22.00;99.90;;;;;;4848164;29;19966;-93
2022/06/22 10:47:20;;;;;;;;;;;22.10;99.90;;;;;;4865443;29;19931;-93
2022/06/22 10:49:50;;;;;;;;;;;22.20;99.90;;;;;;4845971;29;19966;-92
2022/06/22 10:52:16;;;;;;;;;;;22.30;99.90;;;;;;4863923;29;19923;-92
2022/06/22 10:54:52;;;;;;;;;;;22.40;99.90;;;;;;4856784;29;20356;-92
2022/06/22 10:57:23;;;;;;;;;;;22.40;99.90;;;;;;4849585;29;19934;-92
2022/06/22 10:59:58;;;;;;;;;;;22.50;99.90;;;;;;4850494;29;20307;-92
2022/06/22 11:02:31;;;;;;;;;;;22.70;99.90;;;;;;4847516;29;20384;-92
2022/06/22 11:05:07;;;;;;;;;;;22.70;99.90;;;;;;4863385;29;20300;-92
2022/06/22 11:07:39;;;;;;;;;;;22.70;99.90;;;;;;4848349;29;19950;-92
2022/06/22 11:10:14;;;;;;;;;;;22.60;99.90;;;;;;4848289;29;19930;-93
2022/06/22 11:12:40;;;;;;;;;;;22.60;99.90;;;;;;4848687;29;20369;-92
2022/06/22 11:15:25;;;;;;;;;;;22.60;99.90;;;;;;4848143;29;19931;-92
2022/06/22 11:18:06;;;;;;;;;;;22.70;99.90;;;;;;4865754;29;20325;-95
2022/06/22 11:20:32;;;;;;;;;;;23.00;99.90;;;;;;4857914;29;19974;-91
2022/06/22 11:23:02;;;;;;;;;;;22.90;99.90;;;;;;4846763;29;19938;-94
2022/06/22 11:31:45;;;;;;;;;;;23.00;99.90;;;;;;4879628;29;19930;-95
2022/06/22 11:34:32;;;;;;;;;;;23.10;99.90;;;;;;4862280;29;20352;-95
2022/06/22 11:37:08;;;;;;;;;;;23.20;99.90;;;;;;4846600;29;20018;-95
2022/06/22 11:39:33;;;;;;;;;;;23.30;99.90;;;;;;4847240;29;19927;-95
2022/06/22 11:41:59;;;;;;;;;;;23.30;99.90;;;;;;4861908;29;19934;-95
2022/06/22 11:44:34;;;;;;;;;;;23.30;99.90;;;;;;4862253;29;19979;-95
2022/06/22 11:47:05;;;;;;;;;;;23.20;99.90;;;;;;4846840;29;19928;-94
2022/06/22 11:49:32;;;;;;;;;;;23.10;99.90;;;;;;4845946;29;19928;-94
2022/06/22 11:52:06;;;;;;;;;;;23.20;99.90;;;;;;4864677;29;19927;-95
2022/06/22 11:54:40;;;;;;;;;;;23.20;99.90;;;;;;4846390;29;19926;-95
2022/06/22 11:57:17;;;;;;;;;;;23.30;99.90;;;;;;4845887;29;19987;-95
2022/06/22 11:59:54;;;;;;;;;;;23.50;99.90;;;;;;4847006;29;19977;-95
2022/06/22 12:02:39;;;;;;;;;;;23.50;99.90;;;;;;4845838;29;19927;-95
2022/06/22 12:05:13;;;;;;;;;;;23.60;99.90;;;;;;4846680;29;19924;-95
2022/06/22 12:07:56;;;;;;;;;;;23.40;99.90;;;;;;4846549;29;19945;-94
2022/06/22 12:10:33;;;;;;;;;;;23.40;99.90;;;;;;4845095;29;20014;-94
2022/06/22 12:13:09;;;;;;;;;;;23.50;99.90;;;;;;4849709;29;19923;-95
2022/06/22 12:15:38;;;;;;;;;;;23.60;99.90;;;;;;4862254;29;19947;-96
2022/06/22 12:18:11;;;;;;;;;;;23.70;99.90;;;;;;4854825;29;19923;-93
2022/06/22 12:20:46;;;;;;;;;;;23.70;99.90;;;;;;4859950;29;20387;-94
2022/06/22 12:23:12;;;;;;;;;;;23.70;99.90;;;;;;4871738;29;19925;-94
2022/06/22 12:25:49;;;;;;;;;;;23.80;99.90;;;;;;4858368;29;19934;-93
2022/06/22 12:28:26;;;;;;;;;;;23.90;99.90;;;;;;4845400;29;19931;-94
2022/06/22 12:30:57;;;;;;;;;;;24.00;99.90;;;;;;4845716;29;19935;-92
2022/06/22 12:33:29;;;;;;;;;;;23.90;99.90;;;;;;4844294;29;20015;-93
2022/06/22 12:35:58;;;;;;;;;;;23.70;99.90;;;;;;4848847;29;19927;-93
2022/06/22 12:38:24;;;;;;;;;;;23.60;99.90;;;;;;4849364;29;20384;-93
2022/06/22 12:40:58;;;;;;;;;;;23.60;99.90;;;;;;4861545;29;19980;-93
2022/06/22 12:43:33;;;;;;;;;;;23.50;99.90;;;;;;4850714;29;19927;-93
2022/06/22 12:46:04;;;;;;;;;;;23.50;99.90;;;;;;4849091;29;19935;-93
2022/06/22 12:48:40;;;;;;;;;;;23.40;99.90;;;;;;4849219;29;19927;-93
2022/06/22 12:51:13;;;;;;;;;;;23.40;99.90;;;;;;4847506;29;20014;-92
2022/06/22 12:53:42;;;;;;;;;;;23.50;99.90;;;;;;4862372;29;20452;-92
2022/06/22 12:56:15;;;;;;;;;;;23.70;99.90;;;;;;4847695;29;19931;-93
2022/06/22 12:58:45;;;;;;;;;;;23.70;99.90;;;;;;4871955;29;20420;-92
2022/06/22 13:01:11;;;;;;;;;;;23.70;99.90;;;;;;4848863;29;19923;-93
2022/06/22 13:03:38;;;;;;;;;;;23.70;99.90;;;;;;4849858;29;19934;-93
2022/06/22 13:06:04;;;;;;;;;;;23.60;99.90;;;;;;4848504;29;19924;-93
2022/06/22 13:08:30;;;;;;;;;;;23.60;99.90;;;;;;4848412;29;19927;-93
2022/06/22 13:10:58;;;;;;;;;;;23.60;99.90;;;;;;4855189;29;19985;-93
2022/06/22 13:13:44;;;;;;;;;;;23.60;99.90;;;;;;4844233;29;19930;-92
2022/06/22 13:16:17;;;;;;;;;;;23.50;99.90;;;;;;4844599;29;19972;-92
2022/06/22 13:18:49;;;;;;;;;;;23.50;99.90;;;;;;4845176;29;20400;-93
2022/06/22 13:21:16;;;;;;;;;;;23.40;99.90;;;;;;4843854;29;20296;-94
2022/06/22 13:23:47;;;;;;;;;;;23.50;99.90;;;;;;4861327;29;19982;-93
2022/06/22 13:26:19;;;;;;;;;;;23.50;99.90;;;;;;4844291;29;19928;-93
2022/06/22 13:28:47;;;;;;;;;;;23.50;99.90;;;;;;4847434;29;19924;-94
2022/06/22 13:31:17;;;;;;;;;;;23.40;99.90;;;;;;4848356;29;19927;-93
2022/06/22 13:33:53;;;;;;;;;;;23.50;99.90;;;;;;4844689;29;19928;-93
2022/06/22 13:36:31;;;;;;;;;;;23.40;99.90;;;;;;4858917;29;19928;-94
2022/06/22 13:39:05;;;;;;;;;;;23.40;99.90;;;;;;4860828;29;19923;-96
2022/06/22 13:41:44;;;;;;;;;;;23.40;99.90;;;;;;4844417;29;19935;-93
2022/06/22 13:44:16;;;;;;;;;;;23.40;99.90;;;;;;4839464;29;19931;-92
2022/06/22 13:47:05;;;;;;;;;;;23.30;99.90;;;;;;4852845;29;20010;-92
2022/06/22 13:49:53;;;;;;;;;;;23.20;99.90;;;;;;4856471;29;19923;-92
2022/06/22 13:52:24;;;;;;;;;;;23.20;99.90;;;;;;4834726;29;19971;-91
2022/06/22 13:55:01;;;;;;;;;;;23.20;99.90;;;;;;4841811;29;20383;-92
2022/06/22 13:57:31;;;;;;;;;;;23.20;99.90;;;;;;4842105;29;20060;-92
2022/06/22 14:00:01;;;;;;;;;;;23.20;99.90;;;;;;4861816;29;19981;-92
2022/06/22 14:02:42;;;;;;;;;;;23.10;99.90;;;;;;4841532;29;19926;-92
2022/06/22 14:05:07;;;;;;;;;;;23.00;99.90;;;;;;4859093;29;19972;-93
2022/06/22 14:07:37;;;;;;;;;;;22.90;99.90;;;;;;4858529;29;20006;-92
2022/06/22 14:10:09;;;;;;;;;;;22.70;99.90;;;;;;4870530;29;20467;-93
2022/06/22 14:12:39;;;;;;;;;;;22.70;99.90;;;;;;4860233;29;19934;-92
2022/06/22 14:15:26;;;;;;;;;;;22.80;99.90;;;;;;4838338;29;19928;-93
2022/06/22 14:17:58;;;;;;;;;;;22.70;99.90;;;;;;4859481;29;19924;-92
2022/06/22 14:20:27;;;;;;;;;;;22.70;99.90;;;;;;4857689;29;19996;-93
2022/06/22 14:22:55;;;;;;;;;;;22.70;99.90;;;;;;4844840;29;20091;-93
2022/06/22 14:25:38;;;;;;;;;;;22.60;99.90;;;;;;4841778;29;19931;-92
2022/06/22 14:28:09;;;;;;;;;;;22.60;99.90;;;;;;4845461;29;19923;-93
2022/06/22 14:30:49;;;;;;;;;;;22.60;99.90;;;;;;4856951;29;19934;-92
2022/06/22 14:33:23;;;;;;;;;;;22.60;99.90;;;;;;4856688;29;19924;-92
2022/06/22 14:35:57;;;;;;;;;;;22.50;99.90;;;;;;4843478;29;20382;-93
2022/06/22 14:38:37;;;;;;;;;;;22.50;99.90;;;;;;4846583;29;19924;-92
2022/06/22 14:41:06;;;;;;;;;;;22.50;99.90;;;;;;4841290;29;19980;-93
2022/06/22 14:43:35;;;;;;;;;;;22.60;99.90;;;;;;4869800;29;19919;-92
2022/06/22 14:46:09;;;;;;;;;;;22.50;99.90;;;;;;4860808;29;19927;-91
2022/06/22 14:48:40;;;;;;;;;;;22.60;99.90;;;;;;4850390;29;20300;-92
2022/06/22 14:51:16;;;;;;;;;;;22.60;99.90;;;;;;4846184;29;19934;-92
2022/06/22 14:53:50;;;;;;;;;;;22.60;99.90;;;;;;4862463;29;19923;-93
2022/06/22 14:56:23;;;;;;;;;;;22.60;99.90;;;;;;4847122;29;19928;-94
2022/06/22 14:58:56;;;;;;;;;;;22.60;99.90;;;;;;4847262;29;19959;-93
2022/06/22 15:01:21;;;;;;;;;;;22.40;99.90;;;;;;4847006;29;19933;-91
2022/06/22 15:03:51;;;;;;;;;;;22.40;99.90;;;;;;4870718;29;19920;-92
2022/06/22 15:06:21;;;;;;;;;;;22.50;99.90;;;;;;4841491;29;19928;-92
2022/06/22 15:08:48;;;;;;;;;;;22.40;99.90;;;;;;4857335;29;19924;-93
2022/06/22 15:14:12;;;;;;;;;;;22.30;99.90;;;;;;4861678;29;19946;-93
2022/06/22 15:16:40;;;;;;;;;;;22.40;99.90;;;;;;4861427;29;19924;-93